createdAt,value
2023-05-05T00:00:23.688Z,333.00
2023-05-05T00:01:23.734Z,336.00
2023-05-05T00:02:23.832Z,336.00
2023-05-05T00:03:24.042Z,336.00
2023-05-05T00:04:23.955Z,339.00
2023-05-05T00:05:23.987Z,341.00
2023-05-05T00:06:24.043Z,340.00
2023-05-05T00:07:24.119Z,340.00
2023-05-05T00:08:24.178Z,341.00
2023-05-05T00:09:24.258Z,340.00
2023-05-05T00:10:24.306Z,341.00
2023-05-05T00:11:24.359Z,340.00
2023-05-05T00:12:24.435Z,340.00
2023-05-05T00:13:24.486Z,341.00
2023-05-05T00:14:24.542Z,340.00
2023-05-05T00:15:24.604Z,340.00
2023-05-05T00:16:24.703Z,341.00
2023-05-05T00:17:24.774Z,340.00
2023-05-05T00:18:24.829Z,340.00
2023-05-05T00:19:24.917Z,340.00
2023-05-05T00:20:24.943Z,342.00
2023-05-05T00:21:25.006Z,343.00
2023-05-05T00:22:25.097Z,342.00
2023-05-05T00:23:25.218Z,341.00
2023-05-05T00:24:25.239Z,338.00
2023-05-05T00:25:25.289Z,339.00
2023-05-05T00:26:25.379Z,339.00
2023-05-05T00:27:25.444Z,340.00
2023-05-05T00:28:25.522Z,341.00
2023-05-05T00:29:25.585Z,344.00
2023-05-05T00:30:25.667Z,347.00
2023-05-05T00:31:25.751Z,343.00
2023-05-05T00:32:25.827Z,342.00
2023-05-05T00:33:25.873Z,342.00
2023-05-05T00:34:25.945Z,343.00
2023-05-05T00:35:25.990Z,343.00
2023-05-05T00:36:26.077Z,338.00
2023-05-05T00:37:26.139Z,336.00
2023-05-05T00:38:26.202Z,335.00
2023-05-05T00:39:26.284Z,334.00
2023-05-05T00:40:26.349Z,333.00
2023-05-05T00:41:26.388Z,333.00
2023-05-05T00:42:26.466Z,335.00
2023-05-05T00:43:26.529Z,336.00
2023-05-05T00:44:26.623Z,338.00
2023-05-05T00:45:26.670Z,337.00
2023-05-05T00:46:26.798Z,336.00
2023-05-05T00:47:26.864Z,333.00
2023-05-05T00:48:26.863Z,332.00
2023-05-05T00:49:26.975Z,335.00
2023-05-05T00:50:27.021Z,335.00
2023-05-05T00:51:27.085Z,336.00
2023-05-05T00:52:27.160Z,336.00
2023-05-05T00:53:27.222Z,336.00
2023-05-05T00:54:27.292Z,335.00
2023-05-05T00:55:27.350Z,335.00
2023-05-05T00:56:27.486Z,336.00
2023-05-05T00:57:27.512Z,340.00
2023-05-05T00:58:27.521Z,338.00
2023-05-05T00:59:27.605Z,340.00
2023-05-05T01:00:27.677Z,340.00
2023-05-05T01:01:27.800Z,338.00
2023-05-05T01:02:27.837Z,335.00
2023-05-05T01:03:27.973Z,338.00
2023-05-05T01:04:27.937Z,339.00
2023-05-05T01:05:28.004Z,335.00
2023-05-05T01:06:28.072Z,333.00
2023-05-05T01:07:28.117Z,331.00
2023-05-05T01:08:28.175Z,330.00
2023-05-05T01:09:28.253Z,330.00
2023-05-05T01:10:28.323Z,330.00
2023-05-05T01:11:28.375Z,329.00
2023-05-05T01:12:28.465Z,329.00
2023-05-05T01:13:28.538Z,331.00
2023-05-05T01:14:28.581Z,333.00
2023-05-05T01:15:28.707Z,334.00
2023-05-05T01:16:28.769Z,333.00
2023-05-05T01:17:28.807Z,333.00
2023-05-05T01:18:28.852Z,335.00
2023-05-05T01:19:28.913Z,338.00
2023-05-05T01:20:28.964Z,336.00
2023-05-05T01:21:29.042Z,335.00
2023-05-05T01:22:29.104Z,334.00
2023-05-05T01:23:29.163Z,334.00
2023-05-05T01:24:29.214Z,331.00
2023-05-05T01:25:29.287Z,332.00
2023-05-05T01:26:29.343Z,331.00
2023-05-05T01:27:29.348Z,333.00
2023-05-05T01:28:29.361Z,333.00
2023-05-05T01:29:29.344Z,332.00
2023-05-05T01:30:29.327Z,335.00
2023-05-05T01:31:29.348Z,335.00
2023-05-05T01:32:29.397Z,335.00
2023-05-05T01:33:29.328Z,336.00
2023-05-05T01:34:29.338Z,336.00
2023-05-05T01:35:29.364Z,333.00
2023-05-05T01:36:29.340Z,333.00
2023-05-05T01:37:29.402Z,332.00
2023-05-05T01:38:29.462Z,331.00
2023-05-05T01:39:29.527Z,330.00
2023-05-05T01:40:29.578Z,331.00
2023-05-05T01:41:29.670Z,331.00
2023-05-05T01:42:29.639Z,332.00
2023-05-05T01:43:29.638Z,334.00
2023-05-05T01:44:29.660Z,332.00
2023-05-05T01:45:29.664Z,330.00
2023-05-05T01:46:29.642Z,326.00
2023-05-05T01:47:29.698Z,327.00
2023-05-05T01:48:29.651Z,324.00
2023-05-05T01:49:29.661Z,323.00
2023-05-05T01:50:29.675Z,324.00
2023-05-05T01:51:29.716Z,325.00
2023-05-05T01:52:29.660Z,323.00
2023-05-05T01:53:29.670Z,322.00
2023-05-05T01:54:29.647Z,325.00
2023-05-05T01:55:29.669Z,327.00
2023-05-05T01:56:29.667Z,326.00
2023-05-05T01:57:29.661Z,326.00
2023-05-05T01:58:29.659Z,328.00
2023-05-05T01:59:29.660Z,329.00
2023-05-05T02:00:29.659Z,326.00
2023-05-05T02:01:29.705Z,329.00
2023-05-05T02:02:29.714Z,326.00
2023-05-05T02:03:29.688Z,328.00
2023-05-05T02:04:29.701Z,328.00
2023-05-05T02:05:29.759Z,326.00
2023-05-05T02:06:29.818Z,328.00
2023-05-05T02:07:29.879Z,328.00
2023-05-05T02:08:29.958Z,327.00
2023-05-05T02:09:30.022Z,326.00
2023-05-05T02:10:30.088Z,326.00
2023-05-05T02:11:30.168Z,327.00
2023-05-05T02:12:30.248Z,328.00
2023-05-05T02:13:30.328Z,328.00
2023-05-05T02:14:30.380Z,327.00
2023-05-05T02:15:30.493Z,325.00
2023-05-05T02:16:30.505Z,326.00
2023-05-05T02:17:30.622Z,331.00
2023-05-05T02:18:30.660Z,334.00
2023-05-05T02:19:30.717Z,332.00
2023-05-05T02:20:30.790Z,332.00
2023-05-05T02:21:30.862Z,331.00
2023-05-05T02:22:30.932Z,331.00
2023-05-05T02:23:31.019Z,331.00
2023-05-05T02:24:31.031Z,330.00
2023-05-05T02:25:31.107Z,329.00
2023-05-05T02:26:31.171Z,328.00
2023-05-05T02:27:31.288Z,326.00
2023-05-05T02:28:31.332Z,328.00
2023-05-05T02:29:31.383Z,327.00
2023-05-05T02:30:31.433Z,325.00
2023-05-05T02:31:31.557Z,325.00
2023-05-05T02:32:31.751Z,325.00
2023-05-05T02:33:31.634Z,324.00
2023-05-05T02:34:31.728Z,323.00
2023-05-05T02:35:31.677Z,323.00
2023-05-05T02:36:31.636Z,325.00
2023-05-05T02:37:31.729Z,325.00
2023-05-05T02:38:31.705Z,325.00
2023-05-05T02:39:31.699Z,326.00
2023-05-05T02:40:31.722Z,326.00
2023-05-05T02:41:31.638Z,327.00
2023-05-05T02:42:31.607Z,326.00
2023-05-05T02:43:31.609Z,327.00
2023-05-05T02:44:31.612Z,327.00
2023-05-05T02:45:31.623Z,327.00
2023-05-05T02:46:31.650Z,325.00
2023-05-05T02:47:31.740Z,324.00
2023-05-05T02:48:31.821Z,324.00
2023-05-05T02:49:31.814Z,326.00
2023-05-05T02:50:31.859Z,326.00
2023-05-05T02:51:31.739Z,325.00
2023-05-05T02:52:31.853Z,326.00
2023-05-05T02:53:31.802Z,323.00
2023-05-05T02:54:31.752Z,324.00
2023-05-05T02:55:31.727Z,325.00
2023-05-05T02:56:32.693Z,326.00
2023-05-05T02:57:31.736Z,325.00
2023-05-05T02:58:31.878Z,323.00
2023-05-05T02:59:31.884Z,323.00
2023-05-05T03:00:31.933Z,323.00
2023-05-05T03:01:32.034Z,322.00
2023-05-05T03:02:32.126Z,320.00
2023-05-05T03:03:32.131Z,318.00
2023-05-05T03:04:32.096Z,319.00
2023-05-05T03:05:32.163Z,320.00
2023-05-05T03:06:32.237Z,321.00
2023-05-05T03:07:32.315Z,323.00
2023-05-05T03:08:32.407Z,323.00
2023-05-05T03:09:32.390Z,324.00
2023-05-05T03:10:32.399Z,326.00
2023-05-05T03:11:32.384Z,325.00
2023-05-05T03:12:32.397Z,322.00
2023-05-05T03:13:32.390Z,322.00
2023-05-05T03:14:33.525Z,322.00
2023-05-05T03:15:32.401Z,323.00
2023-05-05T03:16:32.445Z,321.00
2023-05-05T03:17:32.469Z,323.00
2023-05-05T03:18:32.390Z,324.00
2023-05-05T03:19:32.397Z,323.00
2023-05-05T03:20:32.406Z,324.00
2023-05-05T03:21:32.399Z,322.00
2023-05-05T03:22:32.365Z,324.00
2023-05-05T03:23:32.377Z,325.00
2023-05-05T03:24:32.362Z,325.00
2023-05-05T03:25:32.368Z,325.00
2023-05-05T03:26:32.413Z,324.00
2023-05-05T03:27:32.463Z,323.00
2023-05-05T03:28:32.537Z,324.00
2023-05-05T03:29:32.605Z,324.00
2023-05-05T03:30:32.648Z,326.00
2023-05-05T03:31:32.762Z,327.00
2023-05-05T03:32:32.794Z,326.00
2023-05-05T03:33:33.198Z,326.00
2023-05-05T03:34:32.897Z,327.00
2023-05-05T03:35:33.000Z,329.00
2023-05-05T03:36:33.080Z,328.00
2023-05-05T03:37:33.142Z,328.00
2023-05-05T03:38:33.198Z,328.00
2023-05-05T03:39:33.202Z,324.00
2023-05-05T03:40:43.640Z,322.00
2023-05-05T03:41:34.237Z,324.00
2023-05-05T03:42:33.249Z,325.00
2023-05-05T03:43:33.270Z,324.00
2023-05-05T03:44:33.298Z,328.00
2023-05-05T03:45:33.286Z,328.00
2023-05-05T03:46:33.219Z,327.00
2023-05-05T03:47:33.268Z,326.00
2023-05-05T03:48:33.732Z,327.00
2023-05-05T03:49:33.221Z,327.00
2023-05-05T03:50:33.194Z,327.00
2023-05-05T03:51:33.259Z,327.00
2023-05-05T03:52:33.315Z,326.00
2023-05-05T03:53:33.350Z,325.00
2023-05-05T03:54:33.412Z,325.00
2023-05-05T03:55:33.439Z,325.00
2023-05-05T03:56:33.436Z,325.00
2023-05-05T03:57:33.458Z,326.00
2023-05-05T03:58:33.485Z,326.00
2023-05-05T03:59:33.546Z,324.00
2023-05-05T04:00:33.630Z,321.00
2023-05-05T04:01:33.653Z,321.00
2023-05-05T04:02:33.768Z,321.00
2023-05-05T04:03:33.854Z,322.00
2023-05-05T04:04:33.859Z,323.00
2023-05-05T04:05:33.907Z,323.00
2023-05-05T04:06:33.987Z,323.00
2023-05-05T04:07:33.967Z,322.00
2023-05-05T04:08:34.040Z,321.00
2023-05-05T04:09:33.973Z,320.00
2023-05-05T04:10:33.971Z,320.00
2023-05-05T04:11:33.950Z,320.00
2023-05-05T04:12:34.012Z,319.00
2023-05-05T04:13:33.948Z,318.00
2023-05-05T04:14:33.952Z,319.00
2023-05-05T04:15:33.949Z,320.00
2023-05-05T04:16:33.986Z,322.00
2023-05-05T04:17:34.075Z,319.00
2023-05-05T04:18:34.108Z,319.00
2023-05-05T04:19:34.163Z,321.00
2023-05-05T04:20:34.231Z,323.00
2023-05-05T04:21:34.293Z,324.00
2023-05-05T04:22:34.366Z,325.00
2023-05-05T04:23:34.450Z,325.00
2023-05-05T04:24:34.448Z,326.00
2023-05-05T04:25:34.522Z,326.00
2023-05-05T04:26:34.549Z,325.00
2023-05-05T04:27:34.585Z,322.00
2023-05-05T04:28:34.684Z,323.00
2023-05-05T04:29:34.694Z,324.00
2023-05-05T04:30:34.774Z,324.00
2023-05-05T04:31:34.862Z,324.00
2023-05-05T04:32:34.878Z,325.00
2023-05-05T04:33:35.007Z,320.00
2023-05-05T04:34:35.008Z,320.00
2023-05-05T04:35:35.095Z,318.00
2023-05-05T04:36:35.142Z,320.00
2023-05-05T04:37:35.223Z,318.00
2023-05-05T04:38:35.309Z,317.00
2023-05-05T04:39:35.262Z,317.00
2023-05-05T04:40:35.257Z,317.00
2023-05-05T04:41:35.262Z,316.00
2023-05-05T04:42:35.266Z,316.00
2023-05-05T04:43:35.269Z,317.00
2023-05-05T04:44:35.265Z,319.00
2023-05-05T04:45:35.274Z,320.00
2023-05-05T04:46:35.306Z,318.00
2023-05-05T04:47:35.293Z,317.00
2023-05-05T04:48:35.333Z,318.00
2023-05-05T04:49:35.404Z,317.00
2023-05-05T04:50:35.480Z,316.00
2023-05-05T04:51:35.560Z,317.00
2023-05-05T04:52:35.611Z,318.00
2023-05-05T04:53:35.685Z,319.00
2023-05-05T04:54:35.734Z,318.00
2023-05-05T04:55:35.800Z,316.00
2023-05-05T04:56:35.862Z,314.00
2023-05-05T04:57:35.930Z,316.00
2023-05-05T04:58:36.007Z,315.00
2023-05-05T04:59:36.082Z,315.00
2023-05-05T05:00:36.136Z,312.00
2023-05-05T05:01:38.275Z,313.00
2023-05-05T05:02:36.273Z,315.00
2023-05-05T05:03:36.473Z,316.00
2023-05-05T05:04:36.391Z,317.00
2023-05-05T05:05:36.464Z,317.00
2023-05-05T05:06:36.528Z,315.00
2023-05-05T05:07:36.599Z,314.00
2023-05-05T05:08:36.674Z,314.00
2023-05-05T05:09:36.703Z,314.00
2023-05-05T05:10:36.777Z,312.00
2023-05-05T05:11:36.841Z,312.00
2023-05-05T05:12:36.963Z,311.00
2023-05-05T05:13:36.959Z,313.00
2023-05-05T05:14:37.023Z,313.00
2023-05-05T05:15:37.092Z,315.00
2023-05-05T05:16:37.173Z,315.00
2023-05-05T05:17:37.207Z,316.00
2023-05-05T05:18:37.304Z,316.00
2023-05-05T05:19:37.303Z,320.00
2023-05-05T05:20:37.382Z,322.00
2023-05-05T05:21:37.443Z,322.00
2023-05-05T05:22:37.509Z,323.00
2023-05-05T05:23:37.592Z,326.00
2023-05-05T05:24:37.662Z,327.00
2023-05-05T05:25:37.686Z,324.00
2023-05-05T05:26:37.731Z,322.00
2023-05-05T05:27:37.728Z,322.00
2023-05-05T05:28:37.729Z,323.00
2023-05-05T05:29:37.723Z,324.00
2023-05-05T05:30:37.766Z,322.00
2023-05-05T05:31:37.935Z,322.00
2023-05-05T05:32:37.738Z,323.00
2023-05-05T05:33:37.710Z,321.00
2023-05-05T05:34:37.696Z,322.00
2023-05-05T05:35:37.702Z,323.00
2023-05-05T05:36:37.706Z,384.00
2023-05-05T05:37:37.841Z,492.00
2023-05-05T05:38:37.778Z,470.00
2023-05-05T05:39:37.817Z,480.00
2023-05-05T05:40:38.022Z,536.00
2023-05-05T05:41:37.919Z,548.00
2023-05-05T05:42:37.956Z,555.00
2023-05-05T05:43:38.025Z,647.00
2023-05-05T05:44:38.054Z,650.00
2023-05-05T05:45:38.163Z,663.00
2023-05-05T05:46:38.194Z,700.00
2023-05-05T05:47:38.190Z,701.00
2023-05-05T05:48:38.231Z,748.00
2023-05-05T05:49:38.235Z,705.00
2023-05-05T05:50:38.264Z,681.00
2023-05-05T05:51:38.241Z,620.00
2023-05-05T05:52:38.217Z,612.00
2023-05-05T05:53:38.213Z,617.00
2023-05-05T05:54:38.274Z,633.00
2023-05-05T05:55:38.218Z,638.00
2023-05-05T05:56:38.228Z,593.00
2023-05-05T05:57:38.240Z,590.00
2023-05-05T05:58:38.252Z,571.00
2023-05-05T05:59:38.333Z,556.00
2023-05-05T06:00:38.187Z,571.00
2023-05-05T06:01:38.192Z,572.00
2023-05-05T06:02:38.316Z,551.00
2023-05-05T06:03:38.273Z,520.00
2023-05-05T06:04:38.236Z,532.00
2023-05-05T06:05:38.168Z,531.00
2023-05-05T06:06:38.149Z,519.00
2023-05-05T06:07:38.199Z,520.00
2023-05-05T06:08:38.139Z,513.00
2023-05-05T06:09:38.145Z,477.00
2023-05-05T06:10:38.754Z,496.00
2023-05-05T06:11:38.272Z,564.00
2023-05-05T06:12:38.304Z,606.00
2023-05-05T06:13:38.247Z,616.00
2023-05-05T06:14:38.277Z,628.00
2023-05-05T06:15:38.293Z,658.00
2023-05-05T06:16:38.211Z,663.00
2023-05-05T06:17:38.227Z,722.00
2023-05-05T06:18:38.228Z,723.00
2023-05-05T06:19:38.207Z,723.00
2023-05-05T06:20:38.190Z,733.00
2023-05-05T06:21:38.229Z,793.00
2023-05-05T06:22:38.224Z,805.00
2023-05-05T06:23:38.157Z,823.00
2023-05-05T06:24:38.129Z,835.00
2023-05-05T06:25:38.134Z,861.00
2023-05-05T06:26:38.146Z,888.00
2023-05-05T06:27:38.095Z,903.00
2023-05-05T06:28:38.088Z,921.00
2023-05-05T06:29:38.060Z,917.00
2023-05-05T06:30:38.089Z,927.00
2023-05-05T06:31:38.133Z,995.00
2023-05-05T06:32:38.015Z,974.00
2023-05-05T06:33:37.985Z,994.00
2023-05-05T06:34:38.031Z,1012.00
2023-05-05T06:35:37.945Z,1027.00
2023-05-05T06:36:38.012Z,1049.00
2023-05-05T06:37:38.048Z,1057.00
2023-05-05T06:38:38.271Z,1110.00
2023-05-05T06:39:38.041Z,1116.00
2023-05-05T06:40:38.059Z,1188.00
2023-05-05T06:41:38.081Z,1146.00
2023-05-05T06:42:38.767Z,1060.00
2023-05-05T06:43:38.095Z,1076.00
2023-05-05T06:44:38.087Z,1030.00
2023-05-05T06:45:38.107Z,1010.00
2023-05-05T06:46:38.164Z,1023.00
2023-05-05T06:47:38.240Z,951.00
2023-05-05T06:48:38.210Z,945.00
2023-05-05T06:49:38.321Z,944.00
2023-05-05T06:50:38.233Z,954.00
2023-05-05T06:51:38.549Z,961.00
2023-05-05T06:52:38.250Z,968.00
2023-05-05T06:53:38.439Z,975.00
2023-05-05T06:54:38.496Z,972.00
2023-05-05T06:55:38.335Z,969.00
2023-05-05T06:56:38.360Z,966.00
2023-05-05T06:57:38.324Z,964.00
2023-05-05T06:58:38.397Z,956.00
2023-05-05T06:59:38.346Z,945.00
2023-05-05T07:00:38.392Z,937.00
2023-05-05T07:01:38.416Z,931.00
2023-05-05T07:02:38.599Z,919.00
2023-05-05T07:03:38.476Z,909.00
2023-05-05T07:04:38.473Z,899.00
2023-05-05T07:05:38.575Z,889.00
2023-05-05T07:06:38.501Z,882.00
2023-05-05T07:07:38.627Z,876.00
2023-05-05T07:08:38.591Z,865.00
2023-05-05T07:09:38.611Z,860.00
2023-05-05T07:10:38.656Z,853.00
2023-05-05T07:11:38.724Z,847.00
2023-05-05T07:12:38.744Z,839.00
2023-05-05T07:13:38.744Z,828.00
2023-05-05T07:14:39.002Z,814.00
2023-05-05T07:15:38.667Z,803.00
2023-05-05T07:16:38.724Z,801.00
2023-05-05T07:17:38.692Z,789.00
2023-05-05T07:18:38.635Z,782.00
2023-05-05T07:19:38.649Z,776.00
2023-05-05T07:20:38.609Z,767.00
2023-05-05T07:21:38.642Z,760.00
2023-05-05T07:22:38.647Z,753.00
2023-05-05T07:23:38.718Z,745.00
2023-05-05T07:24:38.744Z,739.00
2023-05-05T07:25:38.835Z,736.00
2023-05-05T07:26:38.855Z,734.00
2023-05-05T07:27:38.903Z,725.00
2023-05-05T07:28:38.997Z,719.00
2023-05-05T07:29:39.045Z,710.00
2023-05-05T07:30:39.108Z,704.00
2023-05-05T07:31:39.199Z,700.00
2023-05-05T07:32:39.283Z,695.00
2023-05-05T07:33:39.313Z,694.00
2023-05-05T07:34:39.339Z,691.00
2023-05-05T07:35:39.566Z,688.00
2023-05-05T07:36:39.446Z,683.00
2023-05-05T07:37:39.678Z,682.00
2023-05-05T07:38:39.575Z,680.00
2023-05-05T07:39:39.635Z,634.00
2023-05-05T07:40:39.656Z,629.00
2023-05-05T07:41:39.728Z,593.00
2023-05-05T07:42:39.744Z,625.00
2023-05-05T07:43:40.532Z,570.00
2023-05-05T07:44:39.831Z,493.00
2023-05-05T07:45:39.955Z,493.00
2023-05-05T07:46:39.894Z,449.00
2023-05-05T07:47:39.986Z,449.00
2023-05-05T07:48:40.018Z,455.00
2023-05-05T07:50:59.112Z,462.00
2023-05-05T07:51:59.129Z,461.00
2023-05-05T07:53:10.929Z,450.00
2023-05-05T07:54:00.123Z,422.00
2023-05-05T07:54:59.101Z,436.00
2023-05-05T07:55:59.113Z,434.00
2023-05-05T07:56:59.113Z,440.00
2023-05-05T07:57:59.113Z,437.00
2023-05-05T07:58:59.171Z,442.00
2023-05-05T07:59:59.137Z,418.00
2023-05-05T08:00:59.117Z,409.00
2023-05-05T08:01:59.173Z,445.00
2023-05-05T08:02:59.182Z,417.00
2023-05-05T08:03:59.324Z,381.00
2023-05-05T08:04:59.807Z,385.00
2023-05-05T08:05:59.168Z,374.00
2023-05-05T08:06:59.128Z,363.00
2023-05-05T08:07:59.141Z,361.00
2023-05-05T08:08:59.282Z,357.00
2023-05-05T08:09:59.115Z,350.00
2023-05-05T08:10:59.122Z,365.00
2023-05-05T08:11:59.127Z,358.00
2023-05-05T08:12:59.185Z,358.00
2023-05-05T08:13:59.145Z,346.00
2023-05-05T08:14:59.179Z,341.00
2023-05-05T08:15:59.241Z,338.00
2023-05-05T08:16:59.280Z,337.00
2023-05-05T08:17:59.400Z,335.00
2023-05-05T08:18:59.330Z,333.00
2023-05-05T08:19:59.333Z,325.00
2023-05-05T08:20:59.358Z,321.00
2023-05-05T08:22:01.075Z,316.00
2023-05-05T08:22:59.365Z,312.00
2023-05-05T08:23:59.371Z,310.00
2023-05-05T08:24:59.416Z,306.00
2023-05-05T08:25:59.536Z,303.00
2023-05-05T08:26:59.380Z,309.00
2023-05-05T08:27:59.366Z,311.00
2023-05-05T08:28:59.410Z,308.00
2023-05-05T08:29:59.395Z,317.00
2023-05-05T08:30:59.470Z,321.00
2023-05-05T08:31:59.462Z,430.00
2023-05-05T08:32:59.624Z,386.00
2023-05-05T08:33:59.564Z,393.00
2023-05-05T08:34:59.600Z,396.00
2023-05-05T08:35:59.624Z,394.00
2023-05-05T08:36:59.638Z,448.00
2023-05-05T08:37:59.660Z,374.00
2023-05-05T08:38:59.676Z,441.00
2023-05-05T08:39:59.776Z,444.00
2023-05-05T08:40:59.829Z,432.00
2023-05-05T08:41:59.729Z,398.00
2023-05-05T08:42:59.757Z,392.00
2023-05-05T08:43:59.833Z,385.00
2023-05-05T08:44:59.826Z,394.00
2023-05-05T08:45:59.882Z,406.00
2023-05-05T08:46:59.939Z,435.00
2023-05-05T08:47:59.956Z,407.00
2023-05-05T08:48:59.955Z,402.00
2023-05-05T08:49:59.927Z,430.00
2023-05-05T08:51:01.336Z,436.00
2023-05-05T08:51:59.931Z,430.00
2023-05-05T08:52:59.986Z,497.00
2023-05-05T08:54:00.227Z,496.00
2023-05-05T08:54:59.992Z,492.00
2023-05-05T08:55:59.972Z,493.00
2023-05-05T08:56:59.967Z,551.00
2023-05-05T08:58:00.214Z,557.00
2023-05-05T08:59:00.008Z,532.00
2023-05-05T08:59:59.977Z,554.00
2023-05-05T09:01:00.093Z,532.00
2023-05-05T09:02:00.044Z,513.00
2023-05-05T09:03:00.087Z,598.00
2023-05-05T09:03:59.967Z,592.00
2023-05-05T09:05:00.288Z,592.00
2023-05-05T09:06:00.047Z,611.00
2023-05-05T09:07:00.167Z,601.00
2023-05-05T09:08:00.159Z,661.00
2023-05-05T09:09:00.226Z,655.00
2023-05-05T09:10:00.344Z,655.00
2023-05-05T09:11:00.442Z,646.00
2023-05-05T09:12:00.193Z,592.00
2023-05-05T09:13:00.325Z,562.00
2023-05-05T09:14:00.197Z,595.00
2023-05-05T09:15:00.210Z,637.00
2023-05-05T09:16:00.164Z,628.00
2023-05-05T09:17:00.283Z,629.00
2023-05-05T09:18:00.206Z,630.00
2023-05-05T09:19:00.215Z,599.00
2023-05-05T09:20:00.202Z,656.00
2023-05-05T09:21:00.193Z,652.00
2023-05-05T09:22:00.169Z,618.00
2023-05-05T09:23:00.249Z,622.00
2023-05-05T09:24:07.344Z,629.00
2023-05-05T09:25:01.151Z,636.00
2023-05-05T09:26:00.147Z,621.00
2023-05-05T09:27:00.145Z,617.00
2023-05-05T09:28:00.137Z,697.00
2023-05-05T09:29:00.248Z,715.00
2023-05-05T09:30:00.287Z,625.00
2023-05-05T09:31:00.173Z,683.00
2023-05-05T09:32:00.100Z,688.00
2023-05-05T09:33:00.199Z,683.00
2023-05-05T09:34:00.128Z,683.00
2023-05-05T09:35:00.140Z,667.00
2023-05-05T09:36:00.077Z,603.00
2023-05-05T09:37:00.073Z,713.00
2023-05-05T09:38:00.136Z,759.00
2023-05-05T09:39:00.219Z,761.00
2023-05-05T09:40:00.193Z,704.00
2023-05-05T09:41:00.212Z,729.00
2023-05-05T09:42:00.132Z,732.00
2023-05-05T09:43:00.198Z,772.00
2023-05-05T09:44:00.802Z,769.00
2023-05-05T09:45:00.396Z,711.00
2023-05-05T09:46:00.126Z,624.00
2023-05-05T09:47:00.101Z,674.00
2023-05-05T09:48:00.877Z,687.00
2023-05-05T09:49:00.067Z,680.00
2023-05-05T09:50:00.053Z,755.00
2023-05-05T09:51:00.059Z,814.00
2023-05-05T09:52:00.162Z,809.00
2023-05-05T09:53:00.172Z,869.00
2023-05-05T09:54:00.167Z,893.00
2023-05-05T09:55:00.233Z,884.00
2023-05-05T09:56:00.236Z,745.00
2023-05-05T09:57:00.847Z,815.00
2023-05-05T09:58:00.289Z,796.00
2023-05-05T09:59:00.377Z,791.00
2023-05-05T10:00:00.568Z,746.00
2023-05-05T10:01:00.483Z,742.00
2023-05-05T10:02:00.513Z,725.00
2023-05-05T10:03:00.545Z,871.00
2023-05-05T10:04:00.562Z,885.00
2023-05-05T10:05:02.457Z,892.00
2023-05-05T10:06:00.632Z,894.00
2023-05-05T10:07:00.660Z,905.00
2023-05-05T10:08:00.694Z,955.00
2023-05-05T10:09:00.749Z,954.00
2023-05-05T10:10:00.780Z,1097.00
2023-05-05T10:11:00.778Z,1114.00
2023-05-05T10:12:00.820Z,1103.00
2023-05-05T10:13:00.810Z,1091.00
2023-05-05T10:14:00.774Z,1083.00
2023-05-05T10:15:00.852Z,983.00
2023-05-05T10:16:00.818Z,1021.00
2023-05-05T10:17:00.883Z,1067.00
2023-05-05T10:18:07.824Z,1083.00
2023-05-05T10:19:02.215Z,1048.00
2023-05-05T10:20:00.788Z,1016.00
2023-05-05T10:21:00.758Z,1107.00
2023-05-05T10:22:00.775Z,1110.00
2023-05-05T10:23:00.724Z,1110.00
2023-05-05T10:24:00.728Z,1121.00
2023-05-05T10:25:00.688Z,1153.00
2023-05-05T10:26:00.659Z,1151.00
2023-05-05T10:27:00.656Z,1146.00
2023-05-05T10:28:00.634Z,1146.00
2023-05-05T10:29:00.634Z,1149.00
2023-05-05T10:30:00.885Z,1130.00
2023-05-05T10:31:00.602Z,1127.00
2023-05-05T10:32:00.604Z,1139.00
2023-05-05T10:34:00.704Z,1151.00
2023-05-05T10:35:00.513Z,1155.00
2023-05-05T10:36:00.540Z,1156.00
2023-05-05T10:37:00.499Z,1155.00
2023-05-05T10:38:00.457Z,1168.00
2023-05-05T10:39:00.484Z,1181.00
2023-05-05T10:40:00.479Z,1116.00
2023-05-05T10:41:00.391Z,1139.00
2023-05-05T10:42:00.435Z,1169.00
2023-05-05T10:43:00.368Z,1185.00
2023-05-05T10:44:02.889Z,1200.00
2023-05-05T10:45:00.372Z,1201.00
2023-05-05T10:46:00.841Z,1193.00
2023-05-05T10:47:00.292Z,1196.00
2023-05-05T10:48:00.304Z,1180.00
2023-05-05T10:49:00.468Z,1135.00
2023-05-05T10:50:00.334Z,1140.00
2023-05-05T10:51:00.232Z,1147.00
2023-05-05T10:52:00.197Z,1033.00
2023-05-05T10:53:00.185Z,1127.00
2023-05-05T10:54:00.224Z,1142.00
2023-05-05T10:55:00.152Z,1045.00
2023-05-05T10:56:00.170Z,969.00
2023-05-05T10:57:00.098Z,1031.00
2023-05-05T10:58:00.137Z,1038.00
2023-05-05T10:59:00.959Z,1071.00
2023-05-05T11:00:00.096Z,1087.00
2023-05-05T11:01:00.047Z,1083.00
2023-05-05T11:02:01.862Z,1082.00
2023-05-05T11:03:00.145Z,1062.00
2023-05-05T11:03:59.980Z,1020.00
2023-05-05T11:05:00.015Z,956.00
2023-05-05T11:05:59.923Z,982.00
2023-05-05T11:06:59.924Z,989.00
2023-05-05T11:08:00.009Z,993.00
2023-05-05T11:08:59.894Z,992.00
2023-05-05T11:09:59.993Z,989.00
2023-05-05T11:10:59.868Z,979.00
2023-05-05T11:11:59.828Z,959.00
2023-05-05T11:12:59.846Z,952.00
2023-05-05T11:13:59.804Z,980.00
2023-05-05T11:14:59.814Z,984.00
2023-05-05T11:15:59.794Z,988.00
2023-05-05T11:16:59.767Z,989.00
2023-05-05T11:17:59.797Z,992.00
2023-05-05T11:18:59.755Z,1000.00
2023-05-05T11:19:59.817Z,1024.00
2023-05-05T11:20:59.708Z,921.00
2023-05-05T11:21:59.711Z,861.00
2023-05-05T11:22:59.685Z,926.00
2023-05-05T11:23:59.655Z,939.00
2023-05-05T11:24:59.649Z,946.00
2023-05-05T11:25:59.618Z,942.00
2023-05-05T11:26:59.626Z,950.00
2023-05-05T11:27:59.683Z,954.00
2023-05-05T11:28:59.589Z,992.00
2023-05-05T11:29:59.663Z,964.00
2023-05-05T11:30:59.962Z,973.00
2023-05-05T11:31:59.785Z,972.00
2023-05-05T11:32:59.890Z,968.00
2023-05-05T11:33:59.838Z,963.00
2023-05-05T11:34:59.898Z,960.00
2023-05-05T11:35:59.932Z,942.00
2023-05-05T11:36:59.979Z,933.00
2023-05-05T11:38:00.034Z,922.00
2023-05-05T11:39:00.113Z,912.00
2023-05-05T11:40:00.200Z,885.00
2023-05-05T11:41:00.180Z,929.00
2023-05-05T11:42:00.257Z,901.00
2023-05-05T11:43:00.290Z,902.00
2023-05-05T11:44:00.351Z,888.00
2023-05-05T11:45:00.423Z,869.00
2023-05-05T11:46:00.476Z,847.00
2023-05-05T11:47:00.526Z,834.00
2023-05-05T11:48:00.590Z,833.00
2023-05-05T11:49:00.628Z,832.00
2023-05-05T11:50:00.680Z,828.00
2023-05-05T11:51:00.710Z,822.00
2023-05-05T11:52:00.774Z,815.00
2023-05-05T11:53:00.785Z,800.00
2023-05-05T11:54:00.725Z,795.00
2023-05-05T11:55:00.713Z,793.00
2023-05-05T11:56:00.688Z,784.00
2023-05-05T11:57:00.715Z,780.00
2023-05-05T11:58:00.705Z,779.00
2023-05-05T11:59:00.693Z,775.00
2023-05-05T12:00:00.700Z,771.00
2023-05-05T12:01:00.668Z,762.00
2023-05-05T12:02:00.665Z,757.00
2023-05-05T12:03:00.879Z,754.00
2023-05-05T12:04:00.828Z,748.00
2023-05-05T12:05:00.733Z,744.00
2023-05-05T12:06:00.663Z,738.00
2023-05-05T12:07:00.651Z,726.00
2023-05-05T12:08:00.645Z,719.00
2023-05-05T12:09:00.706Z,713.00
2023-05-05T12:10:00.665Z,709.00
2023-05-05T12:11:00.609Z,704.00
2023-05-05T12:12:00.589Z,700.00
2023-05-05T12:13:00.603Z,698.00
2023-05-05T12:14:00.575Z,693.00
2023-05-05T12:15:00.609Z,690.00
2023-05-05T12:16:00.592Z,685.00
2023-05-05T12:17:00.548Z,678.00
2023-05-05T12:18:02.778Z,678.00
2023-05-05T12:19:00.736Z,674.00
2023-05-05T12:20:00.710Z,670.00
2023-05-05T12:21:00.701Z,669.00
2023-05-05T12:22:00.725Z,664.00
2023-05-05T12:23:00.769Z,662.00
2023-05-05T12:24:00.684Z,664.00
2023-05-05T12:25:00.914Z,661.00
2023-05-05T12:26:00.697Z,656.00
2023-05-05T12:27:00.699Z,652.00
2023-05-05T12:28:00.664Z,646.00
2023-05-05T12:29:00.680Z,640.00